Red Fork, Arkansas
Current Conditions -  °F | °C
As of 8:35 AM on Wednesday 22 Oct 2014 (Local Time) from KRNV Reporting Station
Clear Clear  
Wind Chill: 56°   Ceiling: Unl
Heat Index: 56°   Visibility: 10mi
Dew Point: 51°   Wind: 8mph
Humidity: 85%   Direction: 50°NE
Pressure: 30.2"   Gusts: NA
Location:  33.8911°N, 91.2569°W
Report Text: KRNV 221335Z AUTO 05007KT 10SM CLR 13/11 A3020 RMK AO2 T01310107
Loading
Personal Weather Stations






























Interactive Weather Map
Tropical Storm Tracking
New forecast layout! Learn more

10-Day Weather Forecast

Advertisements
Track Severe Weather on mobile